sensor_id;sensor_type;location;lat;lon;timestamp;P1;durP1;ratioP1;P2;durP2;ratioP2
56381;SDS011;50261;51.150;4.470;2023-02-25T00:02:23;12.60;;;2.33;;
56381;SDS011;50261;51.150;4.470;2023-02-25T00:04:48;12.85;;;2.42;;
56381;SDS011;50261;51.150;4.470;2023-02-25T00:07:14;13.30;;;2.20;;
56381;SDS011;50261;51.150;4.470;2023-02-25T00:09:40;10.82;;;2.40;;
56381;SDS011;50261;51.150;4.470;2023-02-25T00:12:06;13.15;;;2.60;;
56381;SDS011;50261;51.150;4.470;2023-02-25T00:14:31;13.93;;;2.22;;
56381;SDS011;50261;51.150;4.470;2023-02-25T00:16:57;13.40;;;2.13;;
56381;SDS011;50261;51.150;4.470;2023-02-25T00:19:23;12.15;;;2.00;;
56381;SDS011;50261;51.150;4.470;2023-02-25T00:21:49;11.27;;;2.65;;
56381;SDS011;50261;51.150;4.470;2023-02-25T00:24:15;13.27;;;2.13;;
56381;SDS011;50261;51.150;4.470;2023-02-25T00:26:41;13.05;;;2.45;;
56381;SDS011;50261;51.150;4.470;2023-02-25T00:29:06;13.70;;;2.38;;
56381;SDS011;50261;51.150;4.470;2023-02-25T00:31:32;13.90;;;1.80;;
56381;SDS011;50261;51.150;4.470;2023-02-25T00:33:58;8.55;;;1.80;;
56381;SDS011;50261;51.150;4.470;2023-02-25T00:36:24;7.63;;;1.50;;
56381;SDS011;50261;51.150;4.470;2023-02-25T00:38:51;13.00;;;2.03;;
56381;SDS011;50261;51.150;4.470;2023-02-25T00:41:18;4.72;;;1.50;;
56381;SDS011;50261;51.150;4.470;2023-02-25T00:43:51;8.07;;;1.30;;
56381;SDS011;50261;51.150;4.470;2023-02-25T00:46:17;6.63;;;1.50;;
56381;SDS011;50261;51.150;4.470;2023-02-25T00:48:43;9.13;;;1.48;;
56381;SDS011;50261;51.150;4.470;2023-02-25T00:51:16;5.70;;;1.23;;
56381;SDS011;50261;51.150;4.470;2023-02-25T00:53:43;8.17;;;1.47;;
56381;SDS011;50261;51.150;4.470;2023-02-25T00:56:09;7.32;;;1.55;;
56381;SDS011;50261;51.150;4.470;2023-02-25T00:58:39;7.03;;;1.50;;
56381;SDS011;50261;51.150;4.470;2023-02-25T01:01:05;7.97;;;1.42;;
56381;SDS011;50261;51.150;4.470;2023-02-25T01:03:39;10.80;;;1.90;;
56381;SDS011;50261;51.150;4.470;2023-02-25T01:06:06;9.27;;;1.95;;
56381;SDS011;50261;51.150;4.470;2023-02-25T01:08:32;7.97;;;1.52;;
56381;SDS011;50261;51.150;4.470;2023-02-25T01:10:58;6.82;;;1.70;;
56381;SDS011;50261;51.150;4.470;2023-02-25T01:13:24;8.43;;;1.60;;
56381;SDS011;50261;51.150;4.470;2023-02-25T01:15:50;5.13;;;1.05;;
56381;SDS011;50261;51.150;4.470;2023-02-25T01:18:16;6.93;;;1.10;;
56381;SDS011;50261;51.150;4.470;2023-02-25T01:20:45;6.22;;;1.27;;
56381;SDS011;50261;51.150;4.470;2023-02-25T01:23:11;5.50;;;1.33;;
56381;SDS011;50261;51.150;4.470;2023-02-25T01:25:40;6.10;;;1.17;;
56381;SDS011;50261;51.150;4.470;2023-02-25T01:28:06;8.00;;;1.23;;
56381;SDS011;50261;51.150;4.470;2023-02-25T01:30:34;6.28;;;1.63;;
56381;SDS011;50261;51.150;4.470;2023-02-25T01:32:59;4.75;;;1.15;;
56381;SDS011;50261;51.150;4.470;2023-02-25T01:35:25;6.45;;;1.40;;
56381;SDS011;50261;51.150;4.470;2023-02-25T01:37:51;7.10;;;1.55;;
56381;SDS011;50261;51.150;4.470;2023-02-25T01:40:17;8.70;;;1.40;;
56381;SDS011;50261;51.150;4.470;2023-02-25T01:42:45;6.25;;;1.33;;
56381;SDS011;50261;51.150;4.470;2023-02-25T01:50:18;7.55;;;1.65;;
56381;SDS011;50261;51.150;4.470;2023-02-25T01:52:48;10.18;;;1.88;;
56381;SDS011;50261;51.150;4.470;2023-02-25T01:55:14;9.25;;;1.30;;
56381;SDS011;50261;51.150;4.470;2023-02-25T01:57:40;5.53;;;1.45;;
56381;SDS011;50261;51.150;4.470;2023-02-25T02:00:06;8.68;;;1.60;;
56381;SDS011;50261;51.150;4.470;2023-02-25T02:02:38;8.15;;;1.63;;
56381;SDS011;50261;51.150;4.470;2023-02-25T02:05:04;4.45;;;1.42;;
56381;SDS011;50261;51.150;4.470;2023-02-25T02:07:31;10.30;;;2.17;;
56381;SDS011;50261;51.150;4.470;2023-02-25T02:09:56;6.75;;;1.60;;
56381;SDS011;50261;51.150;4.470;2023-02-25T02:12:25;7.57;;;1.77;;
56381;SDS011;50261;51.150;4.470;2023-02-25T02:14:52;10.63;;;2.42;;
56381;SDS011;50261;51.150;4.470;2023-02-25T02:20:05;8.65;;;2.20;;
56381;SDS011;50261;51.150;4.470;2023-02-25T02:22:50;8.27;;;2.00;;
56381;SDS011;50261;51.150;4.470;2023-02-25T02:30:24;8.85;;;2.35;;
56381;SDS011;50261;51.150;4.470;2023-02-25T02:35:45;7.97;;;2.30;;
56381;SDS011;50261;51.150;4.470;2023-02-25T02:43:34;7.40;;;1.70;;
56381;SDS011;50261;51.150;4.470;2023-02-25T02:50:59;10.02;;;2.22;;
56381;SDS011;50261;51.150;4.470;2023-02-25T02:53:30;9.32;;;2.35;;
56381;SDS011;50261;51.150;4.470;2023-02-25T02:55:58;13.32;;;2.67;;
56381;SDS011;50261;51.150;4.470;2023-02-25T02:58:35;9.93;;;2.08;;
56381;SDS011;50261;51.150;4.470;2023-02-25T03:01:04;10.43;;;2.22;;
56381;SDS011;50261;51.150;4.470;2023-02-25T03:03:31;14.48;;;2.22;;
56381;SDS011;50261;51.150;4.470;2023-02-25T03:06:03;16.77;;;2.17;;
56381;SDS011;50261;51.150;4.470;2023-02-25T03:08:29;12.32;;;2.67;;
56381;SDS011;50261;51.150;4.470;2023-02-25T03:10:57;10.23;;;1.98;;
56381;SDS011;50261;51.150;4.470;2023-02-25T03:13:23;13.85;;;2.00;;
56381;SDS011;50261;51.150;4.470;2023-02-25T03:15:50;14.65;;;2.05;;
56381;SDS011;50261;51.150;4.470;2023-02-25T03:18:19;7.78;;;2.08;;
56381;SDS011;50261;51.150;4.470;2023-02-25T03:20:48;11.25;;;1.83;;
56381;SDS011;50261;51.150;4.470;2023-02-25T03:23:21;16.02;;;2.78;;
56381;SDS011;50261;51.150;4.470;2023-02-25T03:25:50;10.80;;;3.17;;
56381;SDS011;50261;51.150;4.470;2023-02-25T03:28:29;14.38;;;2.00;;
56381;SDS011;50261;51.150;4.470;2023-02-25T03:30:57;15.82;;;2.78;;
56381;SDS011;50261;51.150;4.470;2023-02-25T03:33:27;10.38;;;2.42;;
56381;SDS011;50261;51.150;4.470;2023-02-25T03:35:54;8.60;;;2.00;;
56381;SDS011;50261;51.150;4.470;2023-02-25T03:38:21;13.57;;;2.60;;
56381;SDS011;50261;51.150;4.470;2023-02-25T03:40:49;15.93;;;2.70;;
56381;SDS011;50261;51.150;4.470;2023-02-25T03:43:17;10.48;;;2.45;;
56381;SDS011;50261;51.150;4.470;2023-02-25T03:45:45;9.32;;;2.58;;
56381;SDS011;50261;51.150;4.470;2023-02-25T03:48:11;8.13;;;2.42;;
56381;SDS011;50261;51.150;4.470;2023-02-25T03:50:43;9.90;;;2.40;;
56381;SDS011;50261;51.150;4.470;2023-02-25T03:53:11;12.23;;;2.92;;
56381;SDS011;50261;51.150;4.470;2023-02-25T03:56:04;13.00;;;3.40;;
56381;SDS011;50261;51.150;4.470;2023-02-25T03:58:34;13.52;;;3.13;;
56381;SDS011;50261;51.150;4.470;2023-02-25T04:01:00;11.93;;;3.33;;
56381;SDS011;50261;51.150;4.470;2023-02-25T04:03:30;17.05;;;3.25;;
56381;SDS011;50261;51.150;4.470;2023-02-25T04:05:56;9.70;;;2.25;;
56381;SDS011;50261;51.150;4.470;2023-02-25T04:08:21;9.95;;;2.33;;
56381;SDS011;50261;51.150;4.470;2023-02-25T04:10:47;10.02;;;2.55;;
56381;SDS011;50261;51.150;4.470;2023-02-25T04:13:15;17.30;;;2.42;;
56381;SDS011;50261;51.150;4.470;2023-02-25T04:15:41;9.23;;;1.98;;
56381;SDS011;50261;51.150;4.470;2023-02-25T04:18:07;11.85;;;2.72;;
56381;SDS011;50261;51.150;4.470;2023-02-25T04:20:33;10.95;;;1.77;;
56381;SDS011;50261;51.150;4.470;2023-02-25T04:23:00;12.90;;;2.28;;
56381;SDS011;50261;51.150;4.470;2023-02-25T04:25:26;7.82;;;2.08;;
56381;SDS011;50261;51.150;4.470;2023-02-25T04:27:52;7.05;;;1.90;;
56381;SDS011;50261;51.150;4.470;2023-02-25T04:30:19;10.90;;;1.67;;
56381;SDS011;50261;51.150;4.470;2023-02-25T04:32:45;9.98;;;1.65;;
56381;SDS011;50261;51.150;4.470;2023-02-25T04:35:11;14.52;;;1.98;;
56381;SDS011;50261;51.150;4.470;2023-02-25T04:37:40;7.55;;;1.52;;
56381;SDS011;50261;51.150;4.470;2023-02-25T04:40:08;10.18;;;2.00;;
56381;SDS011;50261;51.150;4.470;2023-02-25T04:42:38;13.95;;;2.53;;
56381;SDS011;50261;51.150;4.470;2023-02-25T04:45:04;7.45;;;1.63;;
56381;SDS011;50261;51.150;4.470;2023-02-25T04:47:30;12.43;;;1.73;;
56381;SDS011;50261;51.150;4.470;2023-02-25T04:49:56;4.80;;;1.50;;
56381;SDS011;50261;51.150;4.470;2023-02-25T04:52:23;8.07;;;1.75;;
56381;SDS011;50261;51.150;4.470;2023-02-25T04:54:48;8.68;;;1.83;;
56381;SDS011;50261;51.150;4.470;2023-02-25T04:57:14;9.13;;;2.08;;
56381;SDS011;50261;51.150;4.470;2023-02-25T04:59:40;12.23;;;2.47;;
56381;SDS011;50261;51.150;4.470;2023-02-25T05:02:06;8.25;;;2.20;;
56381;SDS011;50261;51.150;4.470;2023-02-25T05:04:33;10.57;;;2.20;;
56381;SDS011;50261;51.150;4.470;2023-02-25T05:06:59;12.07;;;1.90;;
56381;SDS011;50261;51.150;4.470;2023-02-25T05:09:25;13.13;;;2.85;;
56381;SDS011;50261;51.150;4.470;2023-02-25T05:11:51;10.27;;;2.10;;
56381;SDS011;50261;51.150;4.470;2023-02-25T05:14:16;11.57;;;1.98;;
56381;SDS011;50261;51.150;4.470;2023-02-25T05:16:42;14.95;;;2.78;;
56381;SDS011;50261;51.150;4.470;2023-02-25T05:19:08;14.55;;;3.45;;
56381;SDS011;50261;51.150;4.470;2023-02-25T05:21:33;15.45;;;2.88;;
56381;SDS011;50261;51.150;4.470;2023-02-25T05:23:59;13.10;;;2.67;;
56381;SDS011;50261;51.150;4.470;2023-02-25T05:26:25;12.27;;;2.58;;
56381;SDS011;50261;51.150;4.470;2023-02-25T05:28:51;8.63;;;2.20;;
56381;SDS011;50261;51.150;4.470;2023-02-25T05:31:18;10.73;;;2.20;;
56381;SDS011;50261;51.150;4.470;2023-02-25T05:33:44;12.52;;;2.40;;
56381;SDS011;50261;51.150;4.470;2023-02-25T05:36:10;6.93;;;1.80;;
56381;SDS011;50261;51.150;4.470;2023-02-25T05:38:36;11.45;;;2.03;;
56381;SDS011;50261;51.150;4.470;2023-02-25T05:41:03;14.35;;;2.20;;
56381;SDS011;50261;51.150;4.470;2023-02-25T05:43:30;10.77;;;2.15;;
56381;SDS011;50261;51.150;4.470;2023-02-25T05:45:56;11.65;;;2.10;;
56381;SDS011;50261;51.150;4.470;2023-02-25T05:48:23;8.57;;;1.95;;
56381;SDS011;50261;51.150;4.470;2023-02-25T05:50:49;6.68;;;1.88;;
56381;SDS011;50261;51.150;4.470;2023-02-25T05:53:18;10.48;;;2.65;;
56381;SDS011;50261;51.150;4.470;2023-02-25T05:55:44;15.45;;;2.33;;
56381;SDS011;50261;51.150;4.470;2023-02-25T05:58:10;13.43;;;2.00;;
56381;SDS011;50261;51.150;4.470;2023-02-25T06:00:36;6.93;;;1.77;;
56381;SDS011;50261;51.150;4.470;2023-02-25T06:03:03;11.35;;;2.00;;
56381;SDS011;50261;51.150;4.470;2023-02-25T06:05:29;7.05;;;1.85;;
56381;SDS011;50261;51.150;4.470;2023-02-25T06:07:55;6.30;;;1.60;;
56381;SDS011;50261;51.150;4.470;2023-02-25T06:10:22;6.95;;;1.65;;
56381;SDS011;50261;51.150;4.470;2023-02-25T06:12:47;8.40;;;1.70;;
56381;SDS011;50261;51.150;4.470;2023-02-25T06:15:13;12.23;;;1.63;;
56381;SDS011;50261;51.150;4.470;2023-02-25T06:17:39;8.98;;;1.52;;
56381;SDS011;50261;51.150;4.470;2023-02-25T06:20:05;9.13;;;1.67;;
56381;SDS011;50261;51.150;4.470;2023-02-25T06:22:31;9.88;;;2.53;;
56381;SDS011;50261;51.150;4.470;2023-02-25T06:24:57;13.55;;;2.97;;
56381;SDS011;50261;51.150;4.470;2023-02-25T06:27:22;10.05;;;2.42;;
56381;SDS011;50261;51.150;4.470;2023-02-25T06:29:48;10.27;;;2.35;;
56381;SDS011;50261;51.150;4.470;2023-02-25T06:32:14;13.40;;;4.53;;
56381;SDS011;50261;51.150;4.470;2023-02-25T06:34:40;13.38;;;2.88;;
56381;SDS011;50261;51.150;4.470;2023-02-25T06:37:06;15.23;;;3.50;;
56381;SDS011;50261;51.150;4.470;2023-02-25T06:39:32;15.15;;;3.38;;
56381;SDS011;50261;51.150;4.470;2023-02-25T06:41:58;10.32;;;2.60;;
56381;SDS011;50261;51.150;4.470;2023-02-25T06:44:24;12.68;;;2.25;;
56381;SDS011;50261;51.150;4.470;2023-02-25T06:46:51;11.15;;;2.80;;
56381;SDS011;50261;51.150;4.470;2023-02-25T06:49:17;11.55;;;2.65;;
56381;SDS011;50261;51.150;4.470;2023-02-25T06:51:43;14.27;;;2.10;;
56381;SDS011;50261;51.150;4.470;2023-02-25T06:54:09;9.38;;;2.05;;
56381;SDS011;50261;51.150;4.470;2023-02-25T06:56:35;10.57;;;2.53;;
56381;SDS011;50261;51.150;4.470;2023-02-25T06:59:00;11.50;;;2.08;;
56381;SDS011;50261;51.150;4.470;2023-02-25T07:01:26;18.55;;;2.45;;
56381;SDS011;50261;51.150;4.470;2023-02-25T07:03:52;13.40;;;2.25;;
56381;SDS011;50261;51.150;4.470;2023-02-25T07:06:18;14.40;;;2.72;;
56381;SDS011;50261;51.150;4.470;2023-02-25T07:08:44;11.95;;;2.10;;
56381;SDS011;50261;51.150;4.470;2023-02-25T07:13:35;13.18;;;2.92;;
56381;SDS011;50261;51.150;4.470;2023-02-25T07:16:01;15.60;;;3.15;;
56381;SDS011;50261;51.150;4.470;2023-02-25T07:18:27;15.10;;;3.30;;
56381;SDS011;50261;51.150;4.470;2023-02-25T07:20:53;16.25;;;2.80;;
56381;SDS011;50261;51.150;4.470;2023-02-25T07:23:18;14.15;;;3.40;;
56381;SDS011;50261;51.150;4.470;2023-02-25T07:25:44;14.25;;;2.80;;
56381;SDS011;50261;51.150;4.470;2023-02-25T07:28:11;13.95;;;2.67;;
56381;SDS011;50261;51.150;4.470;2023-02-25T07:30:36;14.15;;;2.53;;
56381;SDS011;50261;51.150;4.470;2023-02-25T07:33:02;12.85;;;3.10;;
56381;SDS011;50261;51.150;4.470;2023-02-25T07:35:28;12.10;;;2.90;;
56381;SDS011;50261;51.150;4.470;2023-02-25T07:37:54;17.38;;;3.38;;
56381;SDS011;50261;51.150;4.470;2023-02-25T07:40:19;17.27;;;2.90;;
56381;SDS011;50261;51.150;4.470;2023-02-25T07:42:45;12.57;;;2.05;;
56381;SDS011;50261;51.150;4.470;2023-02-25T07:45:11;9.07;;;2.13;;
56381;SDS011;50261;51.150;4.470;2023-02-25T07:47:37;14.50;;;2.67;;
56381;SDS011;50261;51.150;4.470;2023-02-25T07:50:05;15.32;;;2.83;;
56381;SDS011;50261;51.150;4.470;2023-02-25T07:52:31;11.52;;;2.95;;
56381;SDS011;50261;51.150;4.470;2023-02-25T07:54:56;7.97;;;2.70;;
56381;SDS011;50261;51.150;4.470;2023-02-25T07:57:22;10.80;;;2.38;;
56381;SDS011;50261;51.150;4.470;2023-02-25T07:59:48;13.35;;;2.47;;
56381;SDS011;50261;51.150;4.470;2023-02-25T08:02:14;9.82;;;2.38;;
56381;SDS011;50261;51.150;4.470;2023-02-25T08:04:39;9.07;;;2.22;;
56381;SDS011;50261;51.150;4.470;2023-02-25T08:07:05;8.45;;;2.20;;
56381;SDS011;50261;51.150;4.470;2023-02-25T08:09:31;10.05;;;2.22;;
56381;SDS011;50261;51.150;4.470;2023-02-25T08:11:57;16.33;;;2.45;;
56381;SDS011;50261;51.150;4.470;2023-02-25T08:14:22;10.02;;;1.85;;
56381;SDS011;50261;51.150;4.470;2023-02-25T08:16:48;13.50;;;2.80;;
56381;SDS011;50261;51.150;4.470;2023-02-25T08:19:14;9.43;;;2.65;;
56381;SDS011;50261;51.150;4.470;2023-02-25T08:21:40;9.23;;;2.13;;
56381;SDS011;50261;51.150;4.470;2023-02-25T08:24:07;10.15;;;2.75;;
56381;SDS011;50261;51.150;4.470;2023-02-25T08:26:33;11.32;;;2.25;;
56381;SDS011;50261;51.150;4.470;2023-02-25T08:28:59;12.60;;;2.08;;
56381;SDS011;50261;51.150;4.470;2023-02-25T08:31:25;7.47;;;1.88;;
56381;SDS011;50261;51.150;4.470;2023-02-25T08:33:51;14.43;;;1.75;;
56381;SDS011;50261;51.150;4.470;2023-02-25T08:36:18;9.07;;;2.00;;
56381;SDS011;50261;51.150;4.470;2023-02-25T08:38:44;10.68;;;2.45;;
56381;SDS011;50261;51.150;4.470;2023-02-25T08:41:10;11.43;;;2.30;;
56381;SDS011;50261;51.150;4.470;2023-02-25T08:43:36;7.95;;;1.45;;
56381;SDS011;50261;51.150;4.470;2023-02-25T08:46:02;7.22;;;1.42;;
56381;SDS011;50261;51.150;4.470;2023-02-25T08:48:28;13.23;;;2.53;;
56381;SDS011;50261;51.150;4.470;2023-02-25T08:50:54;8.18;;;1.73;;
56381;SDS011;50261;51.150;4.470;2023-02-25T08:53:20;10.55;;;1.90;;
56381;SDS011;50261;51.150;4.470;2023-02-25T08:55:46;10.30;;;1.95;;
56381;SDS011;50261;51.150;4.470;2023-02-25T08:58:12;9.75;;;2.03;;
56381;SDS011;50261;51.150;4.470;2023-02-25T09:00:37;7.50;;;1.48;;
56381;SDS011;50261;51.150;4.470;2023-02-25T09:03:02;10.48;;;1.63;;
56381;SDS011;50261;51.150;4.470;2023-02-25T09:05:28;8.63;;;1.77;;
56381;SDS011;50261;51.150;4.470;2023-02-25T09:07:54;9.02;;;1.85;;
56381;SDS011;50261;51.150;4.470;2023-02-25T09:10:19;8.88;;;1.75;;
56381;SDS011;50261;51.150;4.470;2023-02-25T09:12:45;6.60;;;1.60;;
56381;SDS011;50261;51.150;4.470;2023-02-25T09:15:11;8.68;;;1.70;;
56381;SDS011;50261;51.150;4.470;2023-02-25T09:17:38;10.30;;;1.98;;
56381;SDS011;50261;51.150;4.470;2023-02-25T09:20:04;10.07;;;1.50;;
56381;SDS011;50261;51.150;4.470;2023-02-25T09:22:36;9.18;;;2.13;;
56381;SDS011;50261;51.150;4.470;2023-02-25T09:25:03;11.00;;;2.08;;
56381;SDS011;50261;51.150;4.470;2023-02-25T09:27:29;11.48;;;3.03;;
56381;SDS011;50261;51.150;4.470;2023-02-25T09:29:55;11.15;;;1.80;;
56381;SDS011;50261;51.150;4.470;2023-02-25T09:32:21;11.90;;;1.83;;
56381;SDS011;50261;51.150;4.470;2023-02-25T09:34:47;9.30;;;2.08;;
56381;SDS011;50261;51.150;4.470;2023-02-25T09:37:16;6.88;;;1.85;;
56381;SDS011;50261;51.150;4.470;2023-02-25T09:39:44;9.13;;;1.92;;
56381;SDS011;50261;51.150;4.470;2023-02-25T09:42:15;14.35;;;1.95;;
56381;SDS011;50261;51.150;4.470;2023-02-25T09:45:05;11.57;;;2.00;;
56381;SDS011;50261;51.150;4.470;2023-02-25T09:47:31;11.00;;;2.55;;
56381;SDS011;50261;51.150;4.470;2023-02-25T09:49:59;7.78;;;2.05;;
56381;SDS011;50261;51.150;4.470;2023-02-25T09:52:30;8.05;;;1.83;;
56381;SDS011;50261;51.150;4.470;2023-02-25T09:54:59;10.88;;;2.30;;
56381;SDS011;50261;51.150;4.470;2023-02-25T09:57:28;10.07;;;2.40;;
56381;SDS011;50261;51.150;4.470;2023-02-25T09:59:55;11.43;;;2.35;;
56381;SDS011;50261;51.150;4.470;2023-02-25T10:02:37;16.25;;;2.08;;
56381;SDS011;50261;51.150;4.470;2023-02-25T10:05:14;8.88;;;2.63;;
56381;SDS011;50261;51.150;4.470;2023-02-25T10:10:17;9.75;;;2.33;;
56381;SDS011;50261;51.150;4.470;2023-02-25T10:12:51;15.30;;;2.47;;
56381;SDS011;50261;51.150;4.470;2023-02-25T10:20:38;12.63;;;2.55;;
56381;SDS011;50261;51.150;4.470;2023-02-25T10:23:11;11.77;;;3.22;;
56381;SDS011;50261;51.150;4.470;2023-02-25T10:25:41;13.48;;;3.85;;
56381;SDS011;50261;51.150;4.470;2023-02-25T10:28:14;10.65;;;2.53;;
56381;SDS011;50261;51.150;4.470;2023-02-25T10:33:25;14.60;;;2.30;;
56381;SDS011;50261;51.150;4.470;2023-02-25T10:36:06;11.43;;;1.92;;
56381;SDS011;50261;51.150;4.470;2023-02-25T10:38:34;8.75;;;2.00;;
56381;SDS011;50261;51.150;4.470;2023-02-25T10:41:01;11.55;;;2.40;;
56381;SDS011;50261;51.150;4.470;2023-02-25T10:43:27;8.38;;;1.70;;
56381;SDS011;50261;51.150;4.470;2023-02-25T10:45:57;8.55;;;1.90;;
56381;SDS011;50261;51.150;4.470;2023-02-25T10:48:25;7.13;;;1.58;;
56381;SDS011;50261;51.150;4.470;2023-02-25T10:51:04;9.43;;;1.80;;
56381;SDS011;50261;51.150;4.470;2023-02-25T10:53:31;7.45;;;1.88;;
56381;SDS011;50261;51.150;4.470;2023-02-25T10:55:57;9.52;;;1.80;;
56381;SDS011;50261;51.150;4.470;2023-02-25T10:58:25;6.72;;;1.88;;
56381;SDS011;50261;51.150;4.470;2023-02-25T11:00:59;10.02;;;2.13;;
56381;SDS011;50261;51.150;4.470;2023-02-25T11:03:25;9.68;;;2.25;;
56381;SDS011;50261;51.150;4.470;2023-02-25T11:06:06;7.28;;;2.25;;
56381;SDS011;50261;51.150;4.470;2023-02-25T11:08:32;12.00;;;2.42;;
56381;SDS011;50261;51.150;4.470;2023-02-25T11:11:08;9.32;;;2.78;;
56381;SDS011;50261;51.150;4.470;2023-02-25T11:13:38;12.00;;;2.25;;
56381;SDS011;50261;51.150;4.470;2023-02-25T11:16:05;9.23;;;2.47;;
56381;SDS011;50261;51.150;4.470;2023-02-25T11:18:32;7.35;;;2.72;;
56381;SDS011;50261;51.150;4.470;2023-02-25T11:20:59;11.80;;;2.55;;
56381;SDS011;50261;51.150;4.470;2023-02-25T11:23:31;6.55;;;1.25;;
56381;SDS011;50261;51.150;4.470;2023-02-25T11:25:58;7.00;;;1.40;;
56381;SDS011;50261;51.150;4.470;2023-02-25T11:28:28;5.45;;;1.20;;
56381;SDS011;50261;51.150;4.470;2023-02-25T11:30:56;5.47;;;1.10;;
56381;SDS011;50261;51.150;4.470;2023-02-25T11:33:30;7.00;;;1.20;;
56381;SDS011;50261;51.150;4.470;2023-02-25T11:35:57;7.13;;;1.05;;
56381;SDS011;50261;51.150;4.470;2023-02-25T11:38:28;7.30;;;1.52;;
56381;SDS011;50261;51.150;4.470;2023-02-25T11:40:54;8.45;;;1.60;;
56381;SDS011;50261;51.150;4.470;2023-02-25T11:43:20;5.30;;;1.85;;
56381;SDS011;50261;51.150;4.470;2023-02-25T11:46:03;9.45;;;1.92;;
56381;SDS011;50261;51.150;4.470;2023-02-25T11:51:20;8.35;;;1.60;;
56381;SDS011;50261;51.150;4.470;2023-02-25T11:56:23;8.35;;;2.45;;
56381;SDS011;50261;51.150;4.470;2023-02-25T12:01:42;6.75;;;1.50;;
56381;SDS011;50261;51.150;4.470;2023-02-25T12:04:36;8.35;;;1.80;;
56381;SDS011;50261;51.150;4.470;2023-02-25T12:10:41;7.38;;;1.67;;
56381;SDS011;50261;51.150;4.470;2023-02-25T12:12:58;6.72;;;1.55;;
56381;SDS011;50261;51.150;4.470;2023-02-25T12:39:52;2.00;;;0.43;;
56381;SDS011;50261;51.150;4.470;2023-02-25T12:45:02;2.90;;;0.70;;
56381;SDS011;50261;51.150;4.470;2023-02-25T12:52:50;3.15;;;0.85;;
56381;SDS011;50261;51.150;4.470;2023-02-25T12:55:30;5.93;;;0.77;;
56381;SDS011;50261;51.150;4.470;2023-02-25T13:00:49;2.28;;;0.45;;
56381;SDS011;50261;51.150;4.470;2023-02-25T13:16:38;4.60;;;0.90;;
56381;SDS011;50261;51.150;4.470;2023-02-25T13:27:21;5.88;;;1.00;;
56381;SDS011;50261;51.150;4.470;2023-02-25T13:32:18;5.20;;;0.60;;
56381;SDS011;50261;51.150;4.470;2023-02-25T13:34:50;5.45;;;1.02;;
56381;SDS011;50261;51.150;4.470;2023-02-25T13:45:45;5.22;;;1.40;;
56381;SDS011;50261;51.150;4.470;2023-02-25T13:53:51;4.70;;;0.80;;
56381;SDS011;50261;51.150;4.470;2023-02-25T14:02:01;3.58;;;0.93;;
56381;SDS011;50261;51.150;4.470;2023-02-25T14:09:53;4.35;;;1.10;;
56381;SDS011;50261;51.150;4.470;2023-02-25T14:12:32;4.78;;;0.95;;
56381;SDS011;50261;51.150;4.470;2023-02-25T14:20:02;2.90;;;0.95;;
56381;SDS011;50261;51.150;4.470;2023-02-25T14:22:35;4.97;;;1.05;;
56381;SDS011;50261;51.150;4.470;2023-02-25T14:27:49;6.60;;;1.40;;
56381;SDS011;50261;51.150;4.470;2023-02-25T14:33:08;3.25;;;1.48;;
56381;SDS011;50261;51.150;4.470;2023-02-25T14:38:12;4.68;;;1.30;;
56381;SDS011;50261;51.150;4.470;2023-02-25T14:45:54;6.07;;;1.40;;
56381;SDS011;50261;51.150;4.470;2023-02-25T14:48:28;4.95;;;1.65;;
56381;SDS011;50261;51.150;4.470;2023-02-25T15:01:41;4.90;;;1.20;;
56381;SDS011;50261;51.150;4.470;2023-02-25T15:09:10;5.28;;;1.10;;
56381;SDS011;50261;51.150;4.470;2023-02-25T15:14:34;3.95;;;1.60;;
56381;SDS011;50261;51.150;4.470;2023-02-25T15:22:36;7.80;;;1.70;;
56381;SDS011;50261;51.150;4.470;2023-02-25T15:27:45;6.05;;;1.33;;
56381;SDS011;50261;51.150;4.470;2023-02-25T15:38:03;6.93;;;1.50;;
56381;SDS011;50261;51.150;4.470;2023-02-25T15:43:40;4.55;;;1.38;;
56381;SDS011;50261;51.150;4.470;2023-02-25T15:45:49;5.82;;;1.52;;
56381;SDS011;50261;51.150;4.470;2023-02-25T15:55:48;6.13;;;1.27;;
56381;SDS011;50261;51.150;4.470;2023-02-25T16:05:53;3.47;;;1.00;;
56381;SDS011;50261;51.150;4.470;2023-02-25T16:08:23;5.57;;;1.15;;
56381;SDS011;50261;51.150;4.470;2023-02-25T16:10:50;4.10;;;1.25;;
56381;SDS011;50261;51.150;4.470;2023-02-25T16:13:35;4.40;;;1.13;;
56381;SDS011;50261;51.150;4.470;2023-02-25T16:16:01;6.15;;;1.40;;
56381;SDS011;50261;51.150;4.470;2023-02-25T16:18:31;5.60;;;1.38;;
56381;SDS011;50261;51.150;4.470;2023-02-25T16:20:58;4.07;;;1.10;;
56381;SDS011;50261;51.150;4.470;2023-02-25T16:23:24;5.70;;;1.30;;
56381;SDS011;50261;51.150;4.470;2023-02-25T16:28:37;6.63;;;1.42;;
56381;SDS011;50261;51.150;4.470;2023-02-25T16:31:10;7.82;;;1.65;;
56381;SDS011;50261;51.150;4.470;2023-02-25T16:33:42;4.80;;;1.30;;
56381;SDS011;50261;51.150;4.470;2023-02-25T16:36:30;6.03;;;1.60;;
56381;SDS011;50261;51.150;4.470;2023-02-25T16:39:03;11.45;;;1.98;;
56381;SDS011;50261;51.150;4.470;2023-02-25T16:41:30;10.27;;;1.50;;
56381;SDS011;50261;51.150;4.470;2023-02-25T16:43:56;9.77;;;1.95;;
56381;SDS011;50261;51.150;4.470;2023-02-25T16:46:27;4.25;;;1.55;;
56381;SDS011;50261;51.150;4.470;2023-02-25T16:48:53;4.05;;;1.50;;
56381;SDS011;50261;51.150;4.470;2023-02-25T16:51:24;6.18;;;1.80;;
56381;SDS011;50261;51.150;4.470;2023-02-25T16:53:55;6.93;;;1.92;;
56381;SDS011;50261;51.150;4.470;2023-02-25T16:56:23;7.60;;;1.73;;
56381;SDS011;50261;51.150;4.470;2023-02-25T16:59:00;4.43;;;1.50;;
56381;SDS011;50261;51.150;4.470;2023-02-25T17:01:28;8.13;;;1.88;;
56381;SDS011;50261;51.150;4.470;2023-02-25T17:06:32;6.80;;;1.67;;
56381;SDS011;50261;51.150;4.470;2023-02-25T17:08:58;5.30;;;1.33;;
56381;SDS011;50261;51.150;4.470;2023-02-25T17:11:24;6.45;;;1.30;;
56381;SDS011;50261;51.150;4.470;2023-02-25T17:13:51;6.57;;;1.50;;
56381;SDS011;50261;51.150;4.470;2023-02-25T17:16:30;9.57;;;1.80;;
56381;SDS011;50261;51.150;4.470;2023-02-25T17:19:02;9.07;;;1.88;;
56381;SDS011;50261;51.150;4.470;2023-02-25T17:21:31;7.95;;;1.88;;
56381;SDS011;50261;51.150;4.470;2023-02-25T17:24:01;7.32;;;1.48;;
56381;SDS011;50261;51.150;4.470;2023-02-25T17:26:28;4.45;;;1.58;;
56381;SDS011;50261;51.150;4.470;2023-02-25T17:28:55;8.27;;;1.63;;
56381;SDS011;50261;51.150;4.470;2023-02-25T17:31:22;6.00;;;1.65;;
56381;SDS011;50261;51.150;4.470;2023-02-25T17:36:41;5.82;;;1.58;;
56381;SDS011;50261;51.150;4.470;2023-02-25T17:39:13;7.20;;;2.17;;
56381;SDS011;50261;51.150;4.470;2023-02-25T17:41:39;3.23;;;1.70;;
56381;SDS011;50261;51.150;4.470;2023-02-25T17:44:42;7.70;;;1.80;;
56381;SDS011;50261;51.150;4.470;2023-02-25T17:46:57;8.95;;;1.80;;
56381;SDS011;50261;51.150;4.470;2023-02-25T17:49:31;7.32;;;2.03;;
56381;SDS011;50261;51.150;4.470;2023-02-25T17:51:58;9.18;;;2.30;;
56381;SDS011;50261;51.150;4.470;2023-02-25T17:54:25;7.70;;;2.10;;
56381;SDS011;50261;51.150;4.470;2023-02-25T17:56:55;10.73;;;2.03;;
56381;SDS011;50261;51.150;4.470;2023-02-25T17:59:38;6.90;;;1.77;;
56381;SDS011;50261;51.150;4.470;2023-02-25T18:04:48;9.68;;;2.20;;
56381;SDS011;50261;51.150;4.470;2023-02-25T18:07:20;7.68;;;2.08;;
56381;SDS011;50261;51.150;4.470;2023-02-25T18:09:47;7.60;;;1.90;;
56381;SDS011;50261;51.150;4.470;2023-02-25T18:12:23;7.15;;;2.10;;
56381;SDS011;50261;51.150;4.470;2023-02-25T18:14:51;9.68;;;2.03;;
56381;SDS011;50261;51.150;4.470;2023-02-25T18:19:47;12.13;;;2.45;;
56381;SDS011;50261;51.150;4.470;2023-02-25T18:22:33;9.60;;;2.20;;
56381;SDS011;50261;51.150;4.470;2023-02-25T18:25:01;4.03;;;1.67;;
56381;SDS011;50261;51.150;4.470;2023-02-25T18:27:28;8.23;;;2.42;;
56381;SDS011;50261;51.150;4.470;2023-02-25T18:29:58;7.05;;;1.95;;